createdAt,value
2022-10-18T00:02:46.797Z,16.55
2022-10-18T00:05:50.007Z,17.02
2022-10-18T00:08:52.517Z,16.58
2022-10-18T00:11:55.414Z,16.90
2022-10-18T00:14:57.796Z,16.60
2022-10-18T00:18:00.187Z,14.82
2022-10-18T00:21:22.795Z,16.10
2022-10-18T00:24:25.171Z,16.95
2022-10-18T00:27:29.712Z,17.30
2022-10-18T00:30:32.192Z,21.48
2022-10-18T00:33:34.557Z,18.67
2022-10-18T00:36:37.014Z,19.38
2022-10-18T00:39:39.509Z,18.13
2022-10-18T00:42:41.834Z,17.37
2022-10-18T00:45:44.325Z,16.88
2022-10-18T00:48:46.762Z,22.25
2022-10-18T00:52:11.820Z,22.90
2022-10-18T00:55:14.311Z,22.30
2022-10-18T00:58:17.490Z,21.40
2022-10-18T01:01:22.269Z,25.83
2022-10-18T01:04:27.086Z,23.10
2022-10-18T01:07:35.516Z,22.98
2022-10-18T01:10:47.831Z,23.90
2022-10-18T01:14:11.234Z,21.97
2022-10-18T01:17:19.338Z,21.90
2022-10-18T01:20:55.752Z,25.23
2022-10-18T01:24:16.443Z,20.98
2022-10-18T01:27:24.504Z,19.33
2022-10-18T01:30:33.529Z,21.17
2022-10-18T01:33:43.193Z,20.20
2022-10-18T01:36:51.312Z,19.38
2022-10-18T01:39:55.208Z,18.20
2022-10-18T01:42:57.629Z,16.98
2022-10-18T01:46:00.702Z,17.50
2022-10-18T01:49:04.204Z,17.10
2022-10-18T01:55:14.548Z,18.13
2022-10-18T01:58:26.102Z,17.65
2022-10-18T02:01:37.615Z,16.23
2022-10-18T02:04:59.067Z,17.90
2022-10-18T02:08:23.758Z,16.25
2022-10-18T02:11:28.164Z,16.35
2022-10-18T02:14:30.851Z,15.45
2022-10-18T02:17:33.512Z,15.87
2022-10-18T02:20:36.680Z,16.15
2022-10-18T02:23:39.221Z,14.90
2022-10-18T02:26:42.110Z,16.13
2022-10-18T02:29:44.680Z,15.20
2022-10-18T02:32:58.784Z,15.33
2022-10-18T02:36:06.572Z,15.18
2022-10-18T02:39:16.566Z,15.40
2022-10-18T02:42:18.955Z,15.10
2022-10-18T02:45:21.428Z,14.93
2022-10-18T02:48:23.870Z,15.27
2022-10-18T02:51:26.248Z,15.38
2022-10-18T02:54:28.741Z,14.88
2022-10-18T02:57:31.462Z,16.00
2022-10-18T03:00:34.228Z,14.50
2022-10-18T03:03:36.561Z,15.80
2022-10-18T03:06:38.979Z,15.32
2022-10-18T03:09:41.335Z,15.40
2022-10-18T03:12:43.667Z,16.73
2022-10-18T03:15:47.924Z,16.92
2022-10-18T03:18:50.326Z,15.80
2022-10-18T03:21:52.729Z,16.27
2022-10-18T03:24:55.116Z,21.02
2022-10-18T03:27:57.471Z,21.10
2022-10-18T03:31:02.097Z,19.40
2022-10-18T03:34:04.840Z,21.10
2022-10-18T03:37:07.221Z,21.42
2022-10-18T03:40:10.177Z,19.25
2022-10-18T03:43:13.125Z,19.73
2022-10-18T03:46:15.567Z,17.05
2022-10-18T03:49:17.907Z,16.60
2022-10-18T03:52:20.267Z,18.45
2022-10-18T03:55:22.640Z,22.45
2022-10-18T03:58:25.192Z,19.67
2022-10-18T04:01:27.746Z,21.42
2022-10-18T04:04:30.159Z,19.67
2022-10-18T04:07:32.562Z,20.35
2022-10-18T04:10:37.587Z,18.23
2022-10-18T04:13:40.155Z,16.52
2022-10-18T04:16:42.567Z,20.73
2022-10-18T04:19:44.980Z,37.77
2022-10-18T04:22:48.454Z,56.28
2022-10-18T04:25:50.826Z,28.70
2022-10-18T04:28:53.299Z,21.15
2022-10-18T04:31:55.784Z,19.30
2022-10-18T04:34:58.172Z,18.07
2022-10-18T04:38:00.529Z,19.20
2022-10-18T04:41:04.160Z,18.05
2022-10-18T04:44:06.541Z,18.25
2022-10-18T04:47:08.917Z,17.33
2022-10-18T04:50:11.239Z,16.90
2022-10-18T04:53:13.613Z,17.30
2022-10-18T04:56:16.716Z,18.88
2022-10-18T04:59:19.288Z,18.38
2022-10-18T05:02:21.929Z,19.10
2022-10-18T05:05:27.031Z,19.27
2022-10-18T05:08:36.523Z,18.73
2022-10-18T05:11:39.039Z,18.05
2022-10-18T05:14:41.737Z,32.38
2022-10-18T05:17:44.228Z,20.95
2022-10-18T05:20:47.005Z,17.77
2022-10-18T05:23:49.409Z,16.20
2022-10-18T05:26:51.771Z,15.73
2022-10-18T05:29:54.140Z,15.25
2022-10-18T05:32:56.456Z,16.05
2022-10-18T05:35:59.171Z,17.73
2022-10-18T05:39:05.262Z,16.50
2022-10-18T05:42:08.728Z,15.57
2022-10-18T05:45:11.108Z,15.88
2022-10-18T05:48:13.460Z,16.95
2022-10-18T05:51:15.880Z,19.20
2022-10-18T05:54:18.311Z,22.48
2022-10-18T05:57:20.743Z,19.83
2022-10-18T06:00:23.143Z,49.20
2022-10-18T06:03:27.494Z,52.60
2022-10-18T06:06:30.960Z,25.70
2022-10-18T06:09:33.417Z,29.95
2022-10-18T06:12:35.816Z,43.25
2022-10-18T06:15:38.186Z,48.65
2022-10-18T06:18:41.032Z,35.60
2022-10-18T06:21:43.833Z,21.30
2022-10-18T06:24:46.153Z,22.73
2022-10-18T06:27:48.490Z,21.65
2022-10-18T06:30:50.963Z,18.83
2022-10-18T06:33:53.264Z,18.65
2022-10-18T06:36:56.544Z,18.57
2022-10-18T06:40:01.043Z,18.30
2022-10-18T06:43:20.535Z,20.13
2022-10-18T06:46:24.116Z,20.85
2022-10-18T06:49:26.421Z,37.63
2022-10-18T06:52:29.629Z,22.23
2022-10-18T06:55:32.411Z,21.60
2022-10-18T06:58:35.507Z,21.20
2022-10-18T07:01:38.235Z,19.27
2022-10-18T07:04:40.669Z,20.27
2022-10-18T07:07:42.988Z,18.53
2022-10-18T07:10:53.137Z,14.98
2022-10-18T07:14:02.289Z,15.80
2022-10-18T07:17:04.699Z,13.98
2022-10-18T07:20:07.586Z,14.13
2022-10-18T07:23:11.640Z,14.33
2022-10-18T07:26:16.968Z,14.60
2022-10-18T07:29:19.387Z,15.00
2022-10-18T07:32:21.920Z,13.85
2022-10-18T07:35:24.335Z,13.32
2022-10-18T07:38:26.677Z,13.27
2022-10-18T07:41:29.995Z,13.98
2022-10-18T07:44:32.374Z,20.88
2022-10-18T07:47:35.374Z,23.55
2022-10-18T07:50:38.042Z,15.40
2022-10-18T07:53:40.798Z,20.27
2022-10-18T07:56:43.171Z,15.18
2022-10-18T07:59:48.020Z,16.20
2022-10-18T08:02:56.452Z,16.52
2022-10-18T08:05:58.915Z,18.55
2022-10-18T08:09:01.576Z,18.00
2022-10-18T08:12:06.673Z,18.92
2022-10-18T08:15:09.350Z,17.63
2022-10-18T08:18:11.884Z,16.45
2022-10-18T08:21:15.787Z,15.52
2022-10-18T08:24:18.122Z,14.07
2022-10-18T08:27:20.623Z,15.00
2022-10-18T08:30:26.049Z,16.33
2022-10-18T08:33:28.390Z,19.45
2022-10-18T08:36:30.759Z,22.45
2022-10-18T08:39:33.253Z,16.60
2022-10-18T08:43:03.158Z,15.07
2022-10-18T08:46:05.572Z,21.38
2022-10-18T08:49:15.566Z,17.05
2022-10-18T08:52:34.733Z,15.85
2022-10-18T08:55:41.301Z,15.30
2022-10-18T08:58:44.409Z,14.60
2022-10-18T09:01:49.693Z,14.80
2022-10-18T09:05:14.503Z,14.65
2022-10-18T09:08:20.282Z,14.15
2022-10-18T09:11:41.999Z,14.83
2022-10-18T09:14:47.388Z,14.43
2022-10-18T09:18:20.477Z,12.70
2022-10-18T09:21:35.314Z,12.55
2022-10-18T09:24:40.727Z,13.45
2022-10-18T09:27:54.521Z,14.13
2022-10-18T09:31:16.753Z,13.90
2022-10-18T09:34:33.512Z,11.52
2022-10-18T09:37:36.087Z,11.52
2022-10-18T09:40:47.177Z,11.73
2022-10-18T09:43:57.336Z,10.00
2022-10-18T09:47:16.511Z,9.68
2022-10-18T09:50:36.866Z,9.10
2022-10-18T09:54:20.948Z,9.00
2022-10-18T09:57:32.068Z,11.50
2022-10-18T10:00:39.218Z,9.33
2022-10-18T10:03:44.808Z,8.85
2022-10-18T10:06:52.110Z,9.27
2022-10-18T10:10:08.930Z,9.48
2022-10-18T10:13:22.883Z,9.48
2022-10-18T10:16:26.795Z,9.93
2022-10-18T10:19:32.623Z,10.07
2022-10-18T10:22:39.419Z,10.43
2022-10-18T10:25:42.642Z,9.75
2022-10-18T10:28:48.649Z,8.55
2022-10-18T10:32:04.011Z,9.93
2022-10-18T10:35:34.059Z,9.35
2022-10-18T10:38:44.866Z,9.50
2022-10-18T10:41:49.098Z,10.88
2022-10-18T10:44:54.606Z,9.40
2022-10-18T10:48:22.767Z,8.30
2022-10-18T10:51:28.233Z,9.18
2022-10-18T10:54:36.467Z,9.10
2022-10-18T10:57:38.906Z,8.80
2022-10-18T11:00:44.146Z,8.77
2022-10-18T11:03:48.667Z,9.67
2022-10-18T11:06:58.017Z,9.00
2022-10-18T11:10:08.376Z,8.88
2022-10-18T11:13:37.000Z,9.32
2022-10-18T11:17:14.644Z,11.38
2022-10-18T11:20:29.918Z,8.30
2022-10-18T11:23:33.652Z,9.88
2022-10-18T11:26:53.454Z,11.05
2022-10-18T11:30:31.459Z,11.77
2022-10-18T11:34:14.552Z,10.35
2022-10-18T11:37:28.561Z,10.10
2022-10-18T11:40:42.745Z,10.13
2022-10-18T11:44:03.164Z,11.55
2022-10-18T11:47:12.044Z,10.77
2022-10-18T11:50:37.816Z,10.73
2022-10-18T11:53:58.757Z,11.70
2022-10-18T11:57:38.687Z,10.05
2022-10-18T12:01:07.404Z,8.18
2022-10-18T12:04:17.892Z,10.00
2022-10-18T12:07:26.793Z,10.38
2022-10-18T12:10:46.044Z,10.30
2022-10-18T12:14:01.253Z,10.55
2022-10-18T12:17:39.843Z,10.50
2022-10-18T12:20:42.508Z,11.80
2022-10-18T12:23:51.627Z,11.35
2022-10-18T12:27:00.812Z,11.47
2022-10-18T12:30:07.532Z,14.80
2022-10-18T12:33:28.824Z,12.48
2022-10-18T12:36:43.536Z,13.52
2022-10-18T12:40:21.695Z,13.95
2022-10-18T12:43:23.144Z,14.67
2022-10-18T12:46:43.392Z,13.52
2022-10-18T12:49:55.981Z,11.75
2022-10-18T12:53:03.832Z,12.02
2022-10-18T12:56:28.144Z,11.82
2022-10-18T12:59:30.434Z,12.07
2022-10-18T13:02:33.124Z,11.23
2022-10-18T13:05:56.220Z,9.70
2022-10-18T13:09:19.952Z,9.38
2022-10-18T13:12:22.249Z,10.95
2022-10-18T13:15:40.848Z,8.97
2022-10-18T13:18:58.438Z,8.85
2022-10-18T13:22:15.189Z,8.45
2022-10-18T13:25:51.550Z,8.63
2022-10-18T13:29:09.648Z,9.18
2022-10-18T13:32:27.612Z,7.60
2022-10-18T13:35:55.841Z,7.95
2022-10-18T13:39:02.486Z,7.80
2022-10-18T13:42:14.121Z,7.70
2022-10-18T13:45:44.578Z,6.30
2022-10-18T13:48:54.676Z,7.13
2022-10-18T13:52:12.377Z,7.63
2022-10-18T13:55:52.105Z,7.30
2022-10-18T13:59:33.517Z,7.60
2022-10-18T14:03:02.564Z,7.00
2022-10-18T14:06:28.575Z,7.37
2022-10-18T14:09:52.350Z,8.10
2022-10-18T14:12:58.481Z,8.27
2022-10-18T14:16:07.309Z,7.97
2022-10-18T14:19:29.620Z,7.43
2022-10-18T14:22:32.062Z,7.53
2022-10-18T14:25:36.233Z,8.23
2022-10-18T14:28:58.491Z,7.63
2022-10-18T14:32:00.979Z,6.90
2022-10-18T14:38:26.328Z,7.90
2022-10-18T14:41:29.979Z,7.22
2022-10-18T14:44:32.370Z,7.00
2022-10-18T14:47:37.293Z,7.63
2022-10-18T14:50:40.308Z,7.10
2022-10-18T14:53:43.032Z,7.03
2022-10-18T14:56:45.719Z,5.88
2022-10-18T14:59:56.935Z,7.03
2022-10-18T15:02:59.314Z,8.25
2022-10-18T15:06:05.107Z,6.75
2022-10-18T15:09:07.538Z,6.73
2022-10-18T15:12:12.972Z,6.90
2022-10-18T15:15:21.431Z,6.53
2022-10-18T15:18:25.723Z,5.93
2022-10-18T15:21:28.264Z,5.75
2022-10-18T15:24:36.500Z,5.30
2022-10-18T15:27:39.768Z,4.95
2022-10-18T15:30:43.122Z,5.70
2022-10-18T15:33:45.736Z,5.07
2022-10-18T15:36:50.722Z,5.13
2022-10-18T15:40:24.163Z,4.80
2022-10-18T15:43:26.523Z,5.28
2022-10-18T15:46:32.003Z,4.80
2022-10-18T15:49:47.632Z,4.82
2022-10-18T15:52:50.155Z,5.10
2022-10-18T15:56:00.334Z,5.53
2022-10-18T15:59:06.647Z,4.85
2022-10-18T16:02:12.812Z,5.25
2022-10-18T16:05:20.838Z,5.22
2022-10-18T16:08:25.502Z,5.18
2022-10-18T16:11:28.420Z,4.87
2022-10-18T16:14:30.942Z,5.13
2022-10-18T16:17:33.572Z,5.20
2022-10-18T16:20:36.336Z,5.40
2022-10-18T16:23:38.680Z,5.43
2022-10-18T16:26:41.439Z,5.47
2022-10-18T16:29:43.763Z,5.13
2022-10-18T16:32:46.622Z,5.03
2022-10-18T16:35:49.506Z,5.90
2022-10-18T16:38:52.041Z,5.57
2022-10-18T16:41:54.523Z,5.43
2022-10-18T16:44:58.592Z,5.72
2022-10-18T16:48:00.922Z,6.40
2022-10-18T16:51:03.893Z,5.65
2022-10-18T16:54:06.241Z,5.53
2022-10-18T16:57:11.680Z,5.97
2022-10-18T17:00:18.707Z,5.95
2022-10-18T17:03:21.422Z,6.13
2022-10-18T17:06:29.379Z,5.45
2022-10-18T17:09:31.828Z,5.53
2022-10-18T17:12:34.460Z,5.00
2022-10-18T17:15:37.122Z,5.72
2022-10-18T17:18:39.487Z,5.57
2022-10-18T17:21:42.443Z,5.80
2022-10-18T17:24:44.931Z,5.82
2022-10-18T17:27:47.312Z,6.47
2022-10-18T17:30:56.652Z,6.05
2022-10-18T17:34:01.488Z,6.30
2022-10-18T17:37:04.805Z,6.03
2022-10-18T17:40:08.239Z,6.03
2022-10-18T17:43:10.796Z,6.13
2022-10-18T17:46:14.265Z,7.10
2022-10-18T17:49:17.154Z,6.18
2022-10-18T17:52:19.471Z,6.03
2022-10-18T17:55:21.796Z,6.53
2022-10-18T17:58:24.243Z,6.17
2022-10-18T18:01:26.764Z,6.28
2022-10-18T18:04:29.224Z,6.50
2022-10-18T18:07:31.722Z,5.65
2022-10-18T18:10:35.055Z,5.72
2022-10-18T18:13:37.492Z,5.97
2022-10-18T18:16:43.002Z,6.13
2022-10-18T18:19:45.360Z,6.93
2022-10-18T18:22:47.786Z,5.88
2022-10-18T18:25:57.472Z,5.70
2022-10-18T18:29:00.290Z,5.90
2022-10-18T18:32:03.403Z,6.50
2022-10-18T18:35:06.083Z,6.20
2022-10-18T18:38:09.100Z,8.40
2022-10-18T18:41:17.559Z,7.05
2022-10-18T18:44:20.908Z,7.80
2022-10-18T18:47:23.494Z,8.52
2022-10-18T18:50:28.194Z,13.00
2022-10-18T18:53:31.102Z,9.57
2022-10-18T18:56:34.048Z,10.13
2022-10-18T18:59:36.492Z,14.03
2022-10-18T19:02:39.000Z,15.05
2022-10-18T19:05:41.420Z,13.52
2022-10-18T19:08:46.992Z,23.42
2022-10-18T19:11:52.344Z,31.17
2022-10-18T19:14:54.802Z,39.33
2022-10-18T19:17:57.262Z,40.08
2022-10-18T19:20:59.702Z,34.92
2022-10-18T19:24:02.708Z,29.13
2022-10-18T19:27:12.292Z,30.40
2022-10-18T19:30:14.836Z,35.30
2022-10-18T19:33:35.508Z,29.42
2022-10-18T19:36:46.279Z,17.95
2022-10-18T19:39:48.974Z,15.35
2022-10-18T19:42:51.373Z,16.23
2022-10-18T19:45:53.745Z,15.63
2022-10-18T19:48:56.100Z,15.13
2022-10-18T19:51:58.652Z,14.90
2022-10-18T19:55:01.049Z,17.75
2022-10-18T19:58:03.552Z,19.05
2022-10-18T20:01:06.455Z,18.07
2022-10-18T20:04:09.974Z,16.65
2022-10-18T20:07:12.354Z,13.23
2022-10-18T20:10:16.977Z,12.02
2022-10-18T20:13:20.025Z,11.38
2022-10-18T20:16:28.087Z,13.83
2022-10-18T20:19:31.527Z,14.30
2022-10-18T20:22:34.268Z,12.25
2022-10-18T20:25:36.853Z,13.48
2022-10-18T20:28:39.775Z,12.13
2022-10-18T20:31:42.160Z,12.67
2022-10-18T20:34:44.556Z,12.07
2022-10-18T20:37:47.397Z,11.35
2022-10-18T20:40:52.221Z,13.48
2022-10-18T20:43:59.947Z,12.40
2022-10-18T20:47:02.289Z,13.37
2022-10-18T20:50:05.128Z,17.45
2022-10-18T20:53:07.605Z,13.20
2022-10-18T20:56:12.773Z,12.70
2022-10-18T20:59:15.243Z,12.50
2022-10-18T21:02:17.615Z,11.00
2022-10-18T21:05:19.963Z,11.45
2022-10-18T21:08:22.384Z,11.27
2022-10-18T21:11:26.020Z,10.98
2022-10-18T21:14:28.448Z,11.65
2022-10-18T21:17:30.936Z,11.53
2022-10-18T21:20:34.660Z,12.05
2022-10-18T21:23:37.409Z,11.43
2022-10-18T21:26:40.383Z,12.25
2022-10-18T21:29:42.715Z,12.60
2022-10-18T21:32:45.125Z,13.43
2022-10-18T21:35:47.473Z,12.70
2022-10-18T21:38:49.864Z,12.57
2022-10-18T21:41:52.317Z,11.45
2022-10-18T21:44:54.725Z,11.35
2022-10-18T21:47:57.092Z,12.13
2022-10-18T21:51:07.901Z,13.00
2022-10-18T21:54:14.982Z,14.90
2022-10-18T21:57:17.339Z,11.70
2022-10-18T22:00:20.834Z,9.75
2022-10-18T22:03:23.388Z,9.50
2022-10-18T22:06:32.053Z,10.90
2022-10-18T22:09:34.587Z,10.55
2022-10-18T22:12:37.065Z,10.20
2022-10-18T22:15:39.465Z,10.73
2022-10-18T22:18:43.381Z,10.60
2022-10-18T22:21:45.891Z,10.57
2022-10-18T22:24:48.284Z,11.60
2022-10-18T22:27:50.769Z,10.98
2022-10-18T22:30:53.232Z,10.65
2022-10-18T22:33:58.494Z,10.10
2022-10-18T22:37:00.975Z,10.80
2022-10-18T22:40:04.320Z,10.68
2022-10-18T22:43:06.731Z,10.55
2022-10-18T22:46:12.206Z,10.75
2022-10-18T22:49:14.796Z,11.10
2022-10-18T22:52:17.272Z,11.38
2022-10-18T22:55:19.663Z,11.05
2022-10-18T22:58:22.242Z,10.25
2022-10-18T23:01:25.316Z,10.55
2022-10-18T23:04:27.962Z,11.23
2022-10-18T23:07:30.383Z,11.15
2022-10-18T23:10:38.206Z,11.77
2022-10-18T23:13:40.662Z,12.75
2022-10-18T23:16:43.382Z,13.80
2022-10-18T23:19:46.264Z,13.80
2022-10-18T23:22:48.707Z,11.80
2022-10-18T23:25:53.904Z,13.27
2022-10-18T23:28:57.314Z,12.60
2022-10-18T23:31:59.755Z,13.18
2022-10-18T23:35:02.158Z,13.93
2022-10-18T23:38:04.598Z,15.05
2022-10-18T23:41:10.151Z,13.52
2022-10-18T23:44:12.682Z,14.20
2022-10-18T23:47:15.576Z,13.73
2022-10-18T23:50:20.503Z,13.47
2022-10-18T23:53:23.285Z,13.00
2022-10-18T23:56:25.888Z,13.38
2022-10-18T23:59:28.313Z,13.27
